sensor_id;sensor_type;location;lat;lon;timestamp;temperature;humidity
21061;DHT22;10689;50.836;3.266;2022-08-19T00:01:26;19.30;99.90
21061;DHT22;10689;50.836;3.266;2022-08-19T00:03:52;19.30;99.90
21061;DHT22;10689;50.836;3.266;2022-08-19T00:06:18;19.30;99.90
21061;DHT22;10689;50.836;3.266;2022-08-19T00:08:44;19.30;99.90
21061;DHT22;10689;50.836;3.266;2022-08-19T00:11:10;19.40;99.90
21061;DHT22;10689;50.836;3.266;2022-08-19T00:13:36;19.30;99.90
21061;DHT22;10689;50.836;3.266;2022-08-19T00:16:03;19.30;99.90
21061;DHT22;10689;50.836;3.266;2022-08-19T00:18:32;19.20;99.90
21061;DHT22;10689;50.836;3.266;2022-08-19T00:20:59;19.20;99.90
21061;DHT22;10689;50.836;3.266;2022-08-19T00:23:25;19.10;99.90
21061;DHT22;10689;50.836;3.266;2022-08-19T00:25:51;19.00;99.90
21061;DHT22;10689;50.836;3.266;2022-08-19T00:28:18;18.90;99.90
21061;DHT22;10689;50.836;3.266;2022-08-19T00:30:44;18.90;99.90
21061;DHT22;10689;50.836;3.266;2022-08-19T00:33:10;18.90;99.90
21061;DHT22;10689;50.836;3.266;2022-08-19T00:35:36;19.00;99.90
21061;DHT22;10689;50.836;3.266;2022-08-19T00:38:04;19.10;99.90
21061;DHT22;10689;50.836;3.266;2022-08-19T00:40:31;19.00;99.90
21061;DHT22;10689;50.836;3.266;2022-08-19T00:42:56;19.00;99.90
21061;DHT22;10689;50.836;3.266;2022-08-19T00:45:25;19.00;99.90
21061;DHT22;10689;50.836;3.266;2022-08-19T00:47:51;18.90;99.90
21061;DHT22;10689;50.836;3.266;2022-08-19T00:50:18;18.90;99.90
21061;DHT22;10689;50.836;3.266;2022-08-19T00:52:47;18.90;99.90
21061;DHT22;10689;50.836;3.266;2022-08-19T00:55:24;18.90;99.90
21061;DHT22;10689;50.836;3.266;2022-08-19T00:58:02;18.80;99.90
21061;DHT22;10689;50.836;3.266;2022-08-19T01:00:30;18.80;99.90
21061;DHT22;10689;50.836;3.266;2022-08-19T01:02:56;18.90;99.90
21061;DHT22;10689;50.836;3.266;2022-08-19T01:05:27;18.80;99.90
21061;DHT22;10689;50.836;3.266;2022-08-19T01:07:56;18.60;99.90
21061;DHT22;10689;50.836;3.266;2022-08-19T01:10:27;18.60;99.90
21061;DHT22;10689;50.836;3.266;2022-08-19T01:12:54;18.60;99.90
21061;DHT22;10689;50.836;3.266;2022-08-19T01:15:29;18.60;99.90
21061;DHT22;10689;50.836;3.266;2022-08-19T01:17:57;18.60;99.90
21061;DHT22;10689;50.836;3.266;2022-08-19T01:20:25;18.60;99.90
21061;DHT22;10689;50.836;3.266;2022-08-19T01:22:54;18.50;99.90
21061;DHT22;10689;50.836;3.266;2022-08-19T01:25:24;18.40;99.90
21061;DHT22;10689;50.836;3.266;2022-08-19T01:27:52;18.40;99.90
21061;DHT22;10689;50.836;3.266;2022-08-19T01:30:26;18.40;99.90
21061;DHT22;10689;50.836;3.266;2022-08-19T01:32:53;18.30;99.90
21061;DHT22;10689;50.836;3.266;2022-08-19T01:35:20;18.30;99.90
21061;DHT22;10689;50.836;3.266;2022-08-19T01:37:48;18.30;99.90
21061;DHT22;10689;50.836;3.266;2022-08-19T01:40:16;18.20;99.90
21061;DHT22;10689;50.836;3.266;2022-08-19T01:42:42;18.20;99.90
21061;DHT22;10689;50.836;3.266;2022-08-19T01:45:08;18.20;99.90
21061;DHT22;10689;50.836;3.266;2022-08-19T01:47:35;18.20;99.90
21061;DHT22;10689;50.836;3.266;2022-08-19T01:50:04;18.20;99.90
21061;DHT22;10689;50.836;3.266;2022-08-19T01:52:30;18.20;99.90
21061;DHT22;10689;50.836;3.266;2022-08-19T01:54:56;18.20;99.90
21061;DHT22;10689;50.836;3.266;2022-08-19T01:57:21;18.10;99.90
21061;DHT22;10689;50.836;3.266;2022-08-19T01:59:47;18.10;99.90
21061;DHT22;10689;50.836;3.266;2022-08-19T02:02:13;18.10;99.90
21061;DHT22;10689;50.836;3.266;2022-08-19T02:04:39;18.10;99.90
21061;DHT22;10689;50.836;3.266;2022-08-19T02:07:05;18.10;99.90
21061;DHT22;10689;50.836;3.266;2022-08-19T02:09:31;18.00;99.90
21061;DHT22;10689;50.836;3.266;2022-08-19T02:11:57;18.10;99.90
21061;DHT22;10689;50.836;3.266;2022-08-19T02:14:23;18.10;99.90
21061;DHT22;10689;50.836;3.266;2022-08-19T02:16:49;18.10;99.90
21061;DHT22;10689;50.836;3.266;2022-08-19T02:19:15;18.00;99.90
21061;DHT22;10689;50.836;3.266;2022-08-19T02:21:41;18.10;99.90
21061;DHT22;10689;50.836;3.266;2022-08-19T02:24:07;18.10;99.90
21061;DHT22;10689;50.836;3.266;2022-08-19T02:26:32;18.10;99.90
21061;DHT22;10689;50.836;3.266;2022-08-19T02:28:58;18.10;99.90
21061;DHT22;10689;50.836;3.266;2022-08-19T02:31:26;18.10;99.90
21061;DHT22;10689;50.836;3.266;2022-08-19T02:33:54;18.10;99.90
21061;DHT22;10689;50.836;3.266;2022-08-19T02:36:21;18.10;99.90
21061;DHT22;10689;50.836;3.266;2022-08-19T02:38:48;18.10;99.90
21061;DHT22;10689;50.836;3.266;2022-08-19T02:41:19;18.10;99.90
21061;DHT22;10689;50.836;3.266;2022-08-19T02:43:45;18.10;99.90
21061;DHT22;10689;50.836;3.266;2022-08-19T02:46:25;18.10;99.90
21061;DHT22;10689;50.836;3.266;2022-08-19T02:48:54;18.10;99.90
21061;DHT22;10689;50.836;3.266;2022-08-19T02:51:24;18.10;99.90
21061;DHT22;10689;50.836;3.266;2022-08-19T02:53:50;18.10;99.90
21061;DHT22;10689;50.836;3.266;2022-08-19T02:56:15;18.20;99.90
21061;DHT22;10689;50.836;3.266;2022-08-19T02:58:42;18.20;99.90
21061;DHT22;10689;50.836;3.266;2022-08-19T03:01:09;18.10;99.90
21061;DHT22;10689;50.836;3.266;2022-08-19T03:03:36;18.10;99.90
21061;DHT22;10689;50.836;3.266;2022-08-19T03:06:12;18.10;99.90
21061;DHT22;10689;50.836;3.266;2022-08-19T03:08:40;18.00;99.90
21061;DHT22;10689;50.836;3.266;2022-08-19T03:11:11;18.00;99.90
21061;DHT22;10689;50.836;3.266;2022-08-19T03:13:37;18.00;99.90
21061;DHT22;10689;50.836;3.266;2022-08-19T03:16:04;18.00;99.90
21061;DHT22;10689;50.836;3.266;2022-08-19T03:18:32;18.00;99.90
21061;DHT22;10689;50.836;3.266;2022-08-19T03:20:58;18.00;99.90
21061;DHT22;10689;50.836;3.266;2022-08-19T03:23:23;18.10;99.90
21061;DHT22;10689;50.836;3.266;2022-08-19T03:25:51;18.10;99.90
21061;DHT22;10689;50.836;3.266;2022-08-19T03:28:19;18.00;99.90
21061;DHT22;10689;50.836;3.266;2022-08-19T03:31:01;18.10;99.90
21061;DHT22;10689;50.836;3.266;2022-08-19T03:33:28;18.10;99.90
21061;DHT22;10689;50.836;3.266;2022-08-19T03:36:08;18.00;99.90
21061;DHT22;10689;50.836;3.266;2022-08-19T03:38:36;18.00;99.90
21061;DHT22;10689;50.836;3.266;2022-08-19T03:41:08;18.00;99.90
21061;DHT22;10689;50.836;3.266;2022-08-19T03:43:36;17.90;99.90
21061;DHT22;10689;50.836;3.266;2022-08-19T03:46:08;18.00;99.90
21061;DHT22;10689;50.836;3.266;2022-08-19T03:48:34;18.00;99.90
21061;DHT22;10689;50.836;3.266;2022-08-19T03:51:01;18.10;99.90
21061;DHT22;10689;50.836;3.266;2022-08-19T03:53:28;18.10;99.90
21061;DHT22;10689;50.836;3.266;2022-08-19T03:55:56;18.20;99.90
21061;DHT22;10689;50.836;3.266;2022-08-19T03:58:23;18.20;99.90
21061;DHT22;10689;50.836;3.266;2022-08-19T04:00:49;18.30;99.90
21061;DHT22;10689;50.836;3.266;2022-08-19T04:03:15;18.50;99.90
21061;DHT22;10689;50.836;3.266;2022-08-19T04:05:41;18.50;99.90
21061;DHT22;10689;50.836;3.266;2022-08-19T04:08:06;18.50;99.90
21061;DHT22;10689;50.836;3.266;2022-08-19T04:10:36;18.60;99.90
21061;DHT22;10689;50.836;3.266;2022-08-19T04:13:04;18.70;99.90
21061;DHT22;10689;50.836;3.266;2022-08-19T04:15:31;18.70;99.90
21061;DHT22;10689;50.836;3.266;2022-08-19T04:18:01;18.70;99.90
21061;DHT22;10689;50.836;3.266;2022-08-19T04:20:26;18.70;99.90
21061;DHT22;10689;50.836;3.266;2022-08-19T04:22:52;18.70;99.90
21061;DHT22;10689;50.836;3.266;2022-08-19T04:25:18;18.70;99.90
21061;DHT22;10689;50.836;3.266;2022-08-19T04:27:43;18.80;99.90
21061;DHT22;10689;50.836;3.266;2022-08-19T04:30:13;18.80;99.90
21061;DHT22;10689;50.836;3.266;2022-08-19T04:32:39;18.70;99.90
21061;DHT22;10689;50.836;3.266;2022-08-19T04:35:05;18.70;99.90
21061;DHT22;10689;50.836;3.266;2022-08-19T04:37:31;18.70;99.90
21061;DHT22;10689;50.836;3.266;2022-08-19T04:39:59;18.70;99.90
21061;DHT22;10689;50.836;3.266;2022-08-19T04:42:43;18.70;99.90
21061;DHT22;10689;50.836;3.266;2022-08-19T04:45:13;18.70;99.90
21061;DHT22;10689;50.836;3.266;2022-08-19T04:47:41;18.70;99.90
21061;DHT22;10689;50.836;3.266;2022-08-19T04:50:08;18.70;99.90
21061;DHT22;10689;50.836;3.266;2022-08-19T04:52:36;18.70;99.90
21061;DHT22;10689;50.836;3.266;2022-08-19T04:55:02;18.70;99.90
21061;DHT22;10689;50.836;3.266;2022-08-19T04:57:28;18.80;99.90
21061;DHT22;10689;50.836;3.266;2022-08-19T04:59:55;18.90;99.90
21061;DHT22;10689;50.836;3.266;2022-08-19T05:02:21;19.00;99.90
21061;DHT22;10689;50.836;3.266;2022-08-19T05:04:49;19.00;99.90
21061;DHT22;10689;50.836;3.266;2022-08-19T05:07:14;19.10;99.90
21061;DHT22;10689;50.836;3.266;2022-08-19T05:09:41;19.10;99.90
21061;DHT22;10689;50.836;3.266;2022-08-19T05:12:06;19.20;99.90
21061;DHT22;10689;50.836;3.266;2022-08-19T05:14:32;19.30;99.90
21061;DHT22;10689;50.836;3.266;2022-08-19T05:16:58;19.40;99.90
21061;DHT22;10689;50.836;3.266;2022-08-19T05:19:23;19.50;99.90
21061;DHT22;10689;50.836;3.266;2022-08-19T05:22:07;19.50;99.90
21061;DHT22;10689;50.836;3.266;2022-08-19T05:24:51;19.60;99.90
21061;DHT22;10689;50.836;3.266;2022-08-19T05:27:17;19.80;99.90
21061;DHT22;10689;50.836;3.266;2022-08-19T05:29:43;19.90;99.90
21061;DHT22;10689;50.836;3.266;2022-08-19T05:32:08;20.00;99.90
21061;DHT22;10689;50.836;3.266;2022-08-19T05:34:34;20.10;99.90
21061;DHT22;10689;50.836;3.266;2022-08-19T05:37:01;20.20;99.90
21061;DHT22;10689;50.836;3.266;2022-08-19T05:39:29;20.30;99.90
21061;DHT22;10689;50.836;3.266;2022-08-19T05:41:58;20.30;99.90
21061;DHT22;10689;50.836;3.266;2022-08-19T05:44:28;20.50;99.90
21061;DHT22;10689;50.836;3.266;2022-08-19T05:46:58;20.60;99.90
21061;DHT22;10689;50.836;3.266;2022-08-19T05:49:26;20.50;99.90
21061;DHT22;10689;50.836;3.266;2022-08-19T05:51:53;20.70;99.90
21061;DHT22;10689;50.836;3.266;2022-08-19T05:54:19;20.80;99.90
21061;DHT22;10689;50.836;3.266;2022-08-19T05:56:45;20.80;99.90
21061;DHT22;10689;50.836;3.266;2022-08-19T05:59:14;20.90;99.90
21061;DHT22;10689;50.836;3.266;2022-08-19T06:01:45;20.90;99.90
21061;DHT22;10689;50.836;3.266;2022-08-19T06:04:12;21.00;99.90
21061;DHT22;10689;50.836;3.266;2022-08-19T06:06:39;21.10;99.90
21061;DHT22;10689;50.836;3.266;2022-08-19T06:09:06;21.20;99.90
21061;DHT22;10689;50.836;3.266;2022-08-19T06:11:47;21.30;99.90
21061;DHT22;10689;50.836;3.266;2022-08-19T06:14:16;21.40;99.90
21061;DHT22;10689;50.836;3.266;2022-08-19T06:16:43;21.60;99.90
21061;DHT22;10689;50.836;3.266;2022-08-19T06:19:14;21.60;99.90
21061;DHT22;10689;50.836;3.266;2022-08-19T06:21:42;21.70;99.90
21061;DHT22;10689;50.836;3.266;2022-08-19T06:24:12;21.90;99.90
21061;DHT22;10689;50.836;3.266;2022-08-19T06:26:41;21.90;99.90
21061;DHT22;10689;50.836;3.266;2022-08-19T06:29:09;22.00;99.90
21061;DHT22;10689;50.836;3.266;2022-08-19T06:31:36;22.10;99.90
21061;DHT22;10689;50.836;3.266;2022-08-19T06:34:03;22.20;99.90
21061;DHT22;10689;50.836;3.266;2022-08-19T06:36:33;22.30;99.90
21061;DHT22;10689;50.836;3.266;2022-08-19T06:39:14;22.40;99.90
21061;DHT22;10689;50.836;3.266;2022-08-19T06:41:44;22.50;99.90
21061;DHT22;10689;50.836;3.266;2022-08-19T06:44:10;22.50;99.90
21061;DHT22;10689;50.836;3.266;2022-08-19T06:46:37;22.60;99.90
21061;DHT22;10689;50.836;3.266;2022-08-19T06:49:03;22.70;99.90
21061;DHT22;10689;50.836;3.266;2022-08-19T06:51:29;22.80;99.90
21061;DHT22;10689;50.836;3.266;2022-08-19T06:53:57;22.80;99.90
21061;DHT22;10689;50.836;3.266;2022-08-19T06:56:26;22.80;99.90
21061;DHT22;10689;50.836;3.266;2022-08-19T06:59:10;23.00;99.90
21061;DHT22;10689;50.836;3.266;2022-08-19T07:01:41;23.20;99.90
21061;DHT22;10689;50.836;3.266;2022-08-19T07:04:07;23.10;99.90
21061;DHT22;10689;50.836;3.266;2022-08-19T07:06:35;23.00;99.90
21061;DHT22;10689;50.836;3.266;2022-08-19T07:09:02;23.10;99.90
21061;DHT22;10689;50.836;3.266;2022-08-19T07:11:28;23.10;99.90
21061;DHT22;10689;50.836;3.266;2022-08-19T07:13:54;22.90;99.90
21061;DHT22;10689;50.836;3.266;2022-08-19T07:16:21;22.70;99.90
21061;DHT22;10689;50.836;3.266;2022-08-19T07:18:48;22.50;99.90
21061;DHT22;10689;50.836;3.266;2022-08-19T07:21:18;22.60;99.90
21061;DHT22;10689;50.836;3.266;2022-08-19T07:23:44;22.80;99.90
21061;DHT22;10689;50.836;3.266;2022-08-19T07:28:48;22.20;99.90
21061;DHT22;10689;50.836;3.266;2022-08-19T07:31:16;21.80;99.90
21061;DHT22;10689;50.836;3.266;2022-08-19T07:33:44;21.80;99.90
21061;DHT22;10689;50.836;3.266;2022-08-19T07:36:13;21.90;99.90
21061;DHT22;10689;50.836;3.266;2022-08-19T07:38:41;22.00;99.90
21061;DHT22;10689;50.836;3.266;2022-08-19T07:41:11;21.90;99.90
21061;DHT22;10689;50.836;3.266;2022-08-19T07:43:38;21.80;99.90
21061;DHT22;10689;50.836;3.266;2022-08-19T07:46:03;21.70;99.90
21061;DHT22;10689;50.836;3.266;2022-08-19T07:48:29;21.80;99.90
21061;DHT22;10689;50.836;3.266;2022-08-19T07:50:58;21.80;99.90
21061;DHT22;10689;50.836;3.266;2022-08-19T07:53:28;21.80;99.90
21061;DHT22;10689;50.836;3.266;2022-08-19T07:55:56;21.70;99.90
21061;DHT22;10689;50.836;3.266;2022-08-19T07:58:28;21.70;99.90
21061;DHT22;10689;50.836;3.266;2022-08-19T08:00:54;21.80;99.90
21061;DHT22;10689;50.836;3.266;2022-08-19T08:03:21;21.80;99.90
21061;DHT22;10689;50.836;3.266;2022-08-19T08:06:07;22.00;99.90
21061;DHT22;10689;50.836;3.266;2022-08-19T08:08:51;22.20;99.90
21061;DHT22;10689;50.836;3.266;2022-08-19T08:11:35;22.40;99.90
21061;DHT22;10689;50.836;3.266;2022-08-19T08:14:01;22.60;99.90
21061;DHT22;10689;50.836;3.266;2022-08-19T08:16:28;22.80;99.90
21061;DHT22;10689;50.836;3.266;2022-08-19T08:18:57;23.00;99.90
21061;DHT22;10689;50.836;3.266;2022-08-19T08:21:22;23.20;99.90
21061;DHT22;10689;50.836;3.266;2022-08-19T08:23:48;23.30;99.90
21061;DHT22;10689;50.836;3.266;2022-08-19T08:26:14;23.60;99.90
21061;DHT22;10689;50.836;3.266;2022-08-19T08:28:41;23.50;99.90
21061;DHT22;10689;50.836;3.266;2022-08-19T08:31:06;23.60;99.90
21061;DHT22;10689;50.836;3.266;2022-08-19T08:33:32;23.60;99.90
21061;DHT22;10689;50.836;3.266;2022-08-19T08:35:58;23.70;99.90
21061;DHT22;10689;50.836;3.266;2022-08-19T08:38:23;24.10;99.90
21061;DHT22;10689;50.836;3.266;2022-08-19T08:40:59;24.40;99.90
21061;DHT22;10689;50.836;3.266;2022-08-19T08:43:37;24.50;99.90
21061;DHT22;10689;50.836;3.266;2022-08-19T08:46:12;24.40;99.90
21061;DHT22;10689;50.836;3.266;2022-08-19T08:51:28;24.60;99.90
21061;DHT22;10689;50.836;3.266;2022-08-19T08:53:58;24.70;99.90
21061;DHT22;10689;50.836;3.266;2022-08-19T08:56:25;24.70;99.90
21061;DHT22;10689;50.836;3.266;2022-08-19T08:58:58;24.90;99.90
21061;DHT22;10689;50.836;3.266;2022-08-19T09:01:25;25.40;99.90
21061;DHT22;10689;50.836;3.266;2022-08-19T09:03:52;25.70;99.90
21061;DHT22;10689;50.836;3.266;2022-08-19T09:06:43;25.70;99.90
21061;DHT22;10689;50.836;3.266;2022-08-19T09:09:18;25.50;99.90
21061;DHT22;10689;50.836;3.266;2022-08-19T09:12:14;25.40;99.90
21061;DHT22;10689;50.836;3.266;2022-08-19T09:15:04;25.60;99.90
21061;DHT22;10689;50.836;3.266;2022-08-19T09:17:31;25.80;99.90
21061;DHT22;10689;50.836;3.266;2022-08-19T09:20:16;25.50;99.90
21061;DHT22;10689;50.836;3.266;2022-08-19T09:22:43;25.30;99.90
21061;DHT22;10689;50.836;3.266;2022-08-19T09:25:12;25.40;99.90
21061;DHT22;10689;50.836;3.266;2022-08-19T09:27:40;25.80;99.90
21061;DHT22;10689;50.836;3.266;2022-08-19T09:30:07;26.20;99.90
21061;DHT22;10689;50.836;3.266;2022-08-19T09:32:34;26.20;99.90
21061;DHT22;10689;50.836;3.266;2022-08-19T09:35:00;26.10;99.90
21061;DHT22;10689;50.836;3.266;2022-08-19T09:37:27;25.90;99.90
21061;DHT22;10689;50.836;3.266;2022-08-19T09:39:53;25.60;99.90
21061;DHT22;10689;50.836;3.266;2022-08-19T09:42:19;25.30;99.90
21061;DHT22;10689;50.836;3.266;2022-08-19T09:44:46;25.00;99.90
21061;DHT22;10689;50.836;3.266;2022-08-19T09:47:12;25.00;99.90
21061;DHT22;10689;50.836;3.266;2022-08-19T09:49:39;25.20;99.90
21061;DHT22;10689;50.836;3.266;2022-08-19T09:52:08;25.00;99.90
21061;DHT22;10689;50.836;3.266;2022-08-19T09:54:34;24.80;99.90
21061;DHT22;10689;50.836;3.266;2022-08-19T09:57:00;24.80;99.90
21061;DHT22;10689;50.836;3.266;2022-08-19T09:59:27;24.80;99.90
21061;DHT22;10689;50.836;3.266;2022-08-19T10:01:52;24.60;99.90
21061;DHT22;10689;50.836;3.266;2022-08-19T10:04:18;24.80;99.90
21061;DHT22;10689;50.836;3.266;2022-08-19T10:06:47;25.00;99.90
21061;DHT22;10689;50.836;3.266;2022-08-19T10:09:15;25.00;99.90
21061;DHT22;10689;50.836;3.266;2022-08-19T10:11:43;25.10;99.90
21061;DHT22;10689;50.836;3.266;2022-08-19T10:14:11;25.00;99.90
21061;DHT22;10689;50.836;3.266;2022-08-19T10:16:37;25.10;99.90
21061;DHT22;10689;50.836;3.266;2022-08-19T10:19:04;25.30;99.90
21061;DHT22;10689;50.836;3.266;2022-08-19T10:21:33;25.50;99.90
21061;DHT22;10689;50.836;3.266;2022-08-19T10:24:02;25.90;99.90
21061;DHT22;10689;50.836;3.266;2022-08-19T10:26:35;26.00;99.90
21061;DHT22;10689;50.836;3.266;2022-08-19T10:29:03;25.80;99.90
21061;DHT22;10689;50.836;3.266;2022-08-19T10:31:32;25.60;99.90
21061;DHT22;10689;50.836;3.266;2022-08-19T10:33:58;25.90;99.90
21061;DHT22;10689;50.836;3.266;2022-08-19T10:36:29;26.00;99.90
21061;DHT22;10689;50.836;3.266;2022-08-19T10:38:57;25.70;99.90
21061;DHT22;10689;50.836;3.266;2022-08-19T10:41:28;25.60;99.90
21061;DHT22;10689;50.836;3.266;2022-08-19T10:44:02;25.40;99.90
21061;DHT22;10689;50.836;3.266;2022-08-19T10:46:29;25.20;99.90
21061;DHT22;10689;50.836;3.266;2022-08-19T10:49:02;25.10;99.90
21061;DHT22;10689;50.836;3.266;2022-08-19T10:51:29;25.20;99.90
21061;DHT22;10689;50.836;3.266;2022-08-19T10:54:13;25.00;99.90
21061;DHT22;10689;50.836;3.266;2022-08-19T10:56:39;24.70;99.90
21061;DHT22;10689;50.836;3.266;2022-08-19T10:59:20;24.70;99.90
21061;DHT22;10689;50.836;3.266;2022-08-19T11:01:46;25.00;99.90
21061;DHT22;10689;50.836;3.266;2022-08-19T11:04:12;25.10;99.90
21061;DHT22;10689;50.836;3.266;2022-08-19T11:06:40;25.10;99.90
21061;DHT22;10689;50.836;3.266;2022-08-19T11:09:09;25.30;99.90
21061;DHT22;10689;50.836;3.266;2022-08-19T11:11:37;25.60;99.90
21061;DHT22;10689;50.836;3.266;2022-08-19T11:14:10;25.60;99.90
21061;DHT22;10689;50.836;3.266;2022-08-19T11:16:36;25.50;99.90
21061;DHT22;10689;50.836;3.266;2022-08-19T11:19:05;25.60;99.90
21061;DHT22;10689;50.836;3.266;2022-08-19T11:21:34;25.60;99.90
21061;DHT22;10689;50.836;3.266;2022-08-19T11:24:04;25.70;99.90
21061;DHT22;10689;50.836;3.266;2022-08-19T11:26:32;25.90;99.90
21061;DHT22;10689;50.836;3.266;2022-08-19T11:28:59;26.00;99.90
21061;DHT22;10689;50.836;3.266;2022-08-19T11:31:28;26.30;99.90
21061;DHT22;10689;50.836;3.266;2022-08-19T11:34:00;26.80;99.90
21061;DHT22;10689;50.836;3.266;2022-08-19T11:36:27;27.00;99.90
21061;DHT22;10689;50.836;3.266;2022-08-19T11:38:54;27.00;99.90
21061;DHT22;10689;50.836;3.266;2022-08-19T11:41:21;26.90;99.90
21061;DHT22;10689;50.836;3.266;2022-08-19T11:43:52;26.90;99.90
21061;DHT22;10689;50.836;3.266;2022-08-19T11:46:19;27.00;99.90
21061;DHT22;10689;50.836;3.266;2022-08-19T11:48:45;27.20;99.90
21061;DHT22;10689;50.836;3.266;2022-08-19T11:51:15;27.50;99.90
21061;DHT22;10689;50.836;3.266;2022-08-19T11:53:41;27.80;99.90
21061;DHT22;10689;50.836;3.266;2022-08-19T11:56:08;27.60;99.90
21061;DHT22;10689;50.836;3.266;2022-08-19T11:58:35;27.20;99.90
21061;DHT22;10689;50.836;3.266;2022-08-19T12:01:04;27.30;99.90
21061;DHT22;10689;50.836;3.266;2022-08-19T12:03:30;27.00;99.90
21061;DHT22;10689;50.836;3.266;2022-08-19T12:05:56;26.70;99.90
21061;DHT22;10689;50.836;3.266;2022-08-19T12:08:22;25.90;99.90
21061;DHT22;10689;50.836;3.266;2022-08-19T12:10:48;25.40;99.90
21061;DHT22;10689;50.836;3.266;2022-08-19T12:13:14;24.70;99.90
21061;DHT22;10689;50.836;3.266;2022-08-19T12:15:44;24.20;99.90
21061;DHT22;10689;50.836;3.266;2022-08-19T12:18:11;23.90;99.90
21061;DHT22;10689;50.836;3.266;2022-08-19T12:20:40;23.90;99.90
21061;DHT22;10689;50.836;3.266;2022-08-19T12:23:08;24.10;99.90
21061;DHT22;10689;50.836;3.266;2022-08-19T12:25:35;24.50;99.90
21061;DHT22;10689;50.836;3.266;2022-08-19T12:28:02;24.90;99.90
21061;DHT22;10689;50.836;3.266;2022-08-19T12:30:28;25.10;99.90
21061;DHT22;10689;50.836;3.266;2022-08-19T12:32:54;25.60;99.90
21061;DHT22;10689;50.836;3.266;2022-08-19T12:35:20;26.00;99.90
21061;DHT22;10689;50.836;3.266;2022-08-19T12:37:47;26.30;99.90
21061;DHT22;10689;50.836;3.266;2022-08-19T12:40:14;26.60;99.90
21061;DHT22;10689;50.836;3.266;2022-08-19T12:42:40;26.80;99.90
21061;DHT22;10689;50.836;3.266;2022-08-19T12:45:13;26.40;99.90
21061;DHT22;10689;50.836;3.266;2022-08-19T12:47:39;26.20;99.90
21061;DHT22;10689;50.836;3.266;2022-08-19T12:50:06;26.00;99.90
21061;DHT22;10689;50.836;3.266;2022-08-19T12:52:34;26.10;99.90
21061;DHT22;10689;50.836;3.266;2022-08-19T12:55:03;26.20;99.90
21061;DHT22;10689;50.836;3.266;2022-08-19T12:57:30;26.50;99.90
21061;DHT22;10689;50.836;3.266;2022-08-19T13:02:32;26.30;99.90
21061;DHT22;10689;50.836;3.266;2022-08-19T13:05:00;26.10;99.90
21061;DHT22;10689;50.836;3.266;2022-08-19T13:07:26;25.70;99.90
21061;DHT22;10689;50.836;3.266;2022-08-19T13:09:52;25.60;99.90
21061;DHT22;10689;50.836;3.266;2022-08-19T13:12:18;25.40;99.90
21061;DHT22;10689;50.836;3.266;2022-08-19T13:14:46;25.30;99.90
21061;DHT22;10689;50.836;3.266;2022-08-19T13:17:15;25.20;99.90
21061;DHT22;10689;50.836;3.266;2022-08-19T13:19:41;25.30;99.90
21061;DHT22;10689;50.836;3.266;2022-08-19T13:22:07;25.80;99.90
21061;DHT22;10689;50.836;3.266;2022-08-19T13:24:33;26.20;99.90
21061;DHT22;10689;50.836;3.266;2022-08-19T13:27:00;26.20;99.90
21061;DHT22;10689;50.836;3.266;2022-08-19T13:29:25;26.60;99.90
21061;DHT22;10689;50.836;3.266;2022-08-19T13:32:10;26.70;99.90
21061;DHT22;10689;50.836;3.266;2022-08-19T13:34:54;27.00;99.90
21061;DHT22;10689;50.836;3.266;2022-08-19T13:37:19;27.40;99.90
21061;DHT22;10689;50.836;3.266;2022-08-19T13:40:06;27.30;99.90
21061;DHT22;10689;50.836;3.266;2022-08-19T13:42:32;27.40;99.90
21061;DHT22;10689;50.836;3.266;2022-08-19T13:44:58;27.30;99.90
21061;DHT22;10689;50.836;3.266;2022-08-19T13:47:24;27.20;99.90
21061;DHT22;10689;50.836;3.266;2022-08-19T13:49:49;27.20;99.90
21061;DHT22;10689;50.836;3.266;2022-08-19T13:52:15;26.90;99.90
21061;DHT22;10689;50.836;3.266;2022-08-19T13:54:41;26.60;99.90
21061;DHT22;10689;50.836;3.266;2022-08-19T13:57:06;26.60;99.90
21061;DHT22;10689;50.836;3.266;2022-08-19T13:59:32;27.10;99.90
21061;DHT22;10689;50.836;3.266;2022-08-19T14:01:59;27.40;99.90
21061;DHT22;10689;50.836;3.266;2022-08-19T14:04:25;27.60;99.90
21061;DHT22;10689;50.836;3.266;2022-08-19T14:06:51;27.90;99.90
21061;DHT22;10689;50.836;3.266;2022-08-19T14:09:17;28.10;99.90
21061;DHT22;10689;50.836;3.266;2022-08-19T14:11:42;28.00;99.90
21061;DHT22;10689;50.836;3.266;2022-08-19T14:14:10;28.10;99.90
21061;DHT22;10689;50.836;3.266;2022-08-19T14:16:36;28.50;99.90
21061;DHT22;10689;50.836;3.266;2022-08-19T14:19:04;28.90;99.90
21061;DHT22;10689;50.836;3.266;2022-08-19T14:21:30;28.80;99.90
21061;DHT22;10689;50.836;3.266;2022-08-19T14:23:55;28.30;99.90
21061;DHT22;10689;50.836;3.266;2022-08-19T14:26:22;28.10;99.90
21061;DHT22;10689;50.836;3.266;2022-08-19T14:28:48;27.90;99.90
21061;DHT22;10689;50.836;3.266;2022-08-19T14:31:16;27.50;99.90
21061;DHT22;10689;50.836;3.266;2022-08-19T14:33:46;27.50;99.90
21061;DHT22;10689;50.836;3.266;2022-08-19T14:36:12;27.60;99.90
21061;DHT22;10689;50.836;3.266;2022-08-19T14:38:37;27.50;99.90
21061;DHT22;10689;50.836;3.266;2022-08-19T14:41:16;27.70;99.90
21061;DHT22;10689;50.836;3.266;2022-08-19T14:43:49;27.90;99.90
21061;DHT22;10689;50.836;3.266;2022-08-19T14:46:19;27.90;99.90
21061;DHT22;10689;50.836;3.266;2022-08-19T14:48:46;28.30;99.90
21061;DHT22;10689;50.836;3.266;2022-08-19T14:51:12;28.50;99.90
21061;DHT22;10689;50.836;3.266;2022-08-19T14:53:39;28.60;99.90
21061;DHT22;10689;50.836;3.266;2022-08-19T14:56:10;29.10;99.90
21061;DHT22;10689;50.836;3.266;2022-08-19T14:58:36;29.20;99.90
21061;DHT22;10689;50.836;3.266;2022-08-19T15:01:02;29.20;99.90
21061;DHT22;10689;50.836;3.266;2022-08-19T15:03:29;28.90;99.90
21061;DHT22;10689;50.836;3.266;2022-08-19T15:05:55;28.90;99.90
21061;DHT22;10689;50.836;3.266;2022-08-19T15:08:22;28.60;99.90
21061;DHT22;10689;50.836;3.266;2022-08-19T15:10:51;28.40;99.90
21061;DHT22;10689;50.836;3.266;2022-08-19T15:13:17;28.20;99.90
21061;DHT22;10689;50.836;3.266;2022-08-19T15:15:42;28.10;99.90
21061;DHT22;10689;50.836;3.266;2022-08-19T15:18:08;27.70;99.90
21061;DHT22;10689;50.836;3.266;2022-08-19T15:20:34;27.30;99.90
21061;DHT22;10689;50.836;3.266;2022-08-19T15:23:00;27.00;99.90
21061;DHT22;10689;50.836;3.266;2022-08-19T15:25:26;26.90;99.90
21061;DHT22;10689;50.836;3.266;2022-08-19T15:27:52;27.00;99.90
21061;DHT22;10689;50.836;3.266;2022-08-19T15:30:26;27.00;99.90
21061;DHT22;10689;50.836;3.266;2022-08-19T15:32:52;26.80;99.90
21061;DHT22;10689;50.836;3.266;2022-08-19T15:35:20;26.50;99.90
21061;DHT22;10689;50.836;3.266;2022-08-19T15:37:53;26.10;99.90
21061;DHT22;10689;50.836;3.266;2022-08-19T15:40:20;25.70;99.90
21061;DHT22;10689;50.836;3.266;2022-08-19T15:42:46;25.60;99.90
21061;DHT22;10689;50.836;3.266;2022-08-19T15:45:14;25.60;99.90